createdAt,value
2018-04-06T00:00:55.477Z,14.63
2018-04-06T00:03:58.566Z,15.20
2018-04-06T00:07:01.686Z,12.13
2018-04-06T00:10:04.775Z,12.67
2018-04-06T00:13:07.898Z,14.53
2018-04-06T00:16:11.016Z,17.63
2018-04-06T00:19:14.110Z,11.57
2018-04-06T00:22:17.234Z,11.90
2018-04-06T00:25:20.359Z,12.03
2018-04-06T00:28:23.492Z,11.87
2018-04-06T00:31:27.385Z,12.43
2018-04-06T00:34:30.482Z,13.50
2018-04-06T00:37:33.602Z,17.50
2018-04-06T00:40:36.694Z,11.10
2018-04-06T00:43:39.826Z,10.03
2018-04-06T00:46:42.938Z,13.60
2018-04-06T00:49:46.030Z,15.40
2018-04-06T00:52:49.149Z,14.43
2018-04-06T00:55:52.257Z,11.43
2018-04-06T00:58:55.381Z,13.73
2018-04-06T01:01:59.302Z,13.90
2018-04-06T01:05:02.405Z,10.00
2018-04-06T01:08:05.521Z,9.77
2018-04-06T01:11:08.604Z,8.63
2018-04-06T01:14:11.732Z,10.30
2018-04-06T01:17:14.847Z,10.07
2018-04-06T01:20:18.711Z,11.03
2018-04-06T01:23:21.838Z,12.23
2018-04-06T01:26:24.965Z,9.47
2018-04-06T01:29:28.067Z,11.37
2018-04-06T01:32:31.195Z,15.87
2018-04-06T01:35:34.296Z,13.03
2018-04-06T01:38:37.420Z,13.77
2018-04-06T01:41:41.306Z,13.83
2018-04-06T01:44:44.410Z,10.43
2018-04-06T01:47:47.658Z,19.47
2018-04-06T01:50:50.757Z,10.63
2018-04-06T01:53:53.962Z,10.63
2018-04-06T01:56:57.846Z,12.63
2018-04-06T02:00:00.964Z,8.60
2018-04-06T02:03:04.082Z,12.53
2018-04-06T02:06:07.195Z,8.87
2018-04-06T02:09:10.319Z,9.83
2018-04-06T02:12:13.462Z,10.20
2018-04-06T02:15:17.325Z,11.80
2018-04-06T02:18:20.451Z,11.03
2018-04-06T02:21:23.547Z,9.20
2018-04-06T02:24:26.701Z,10.73
2018-04-06T02:27:30.571Z,9.57
2018-04-06T02:30:33.663Z,10.27
2018-04-06T02:33:36.802Z,11.00
2018-04-06T02:36:39.894Z,8.33
2018-04-06T02:39:43.020Z,9.27
2018-04-06T02:42:46.138Z,12.37
2018-04-06T02:45:49.251Z,10.00
2018-04-06T02:48:52.365Z,9.80
2018-04-06T02:51:55.467Z,13.00
2018-04-06T02:54:58.601Z,12.07
2018-04-06T02:58:02.492Z,11.83
2018-04-06T03:01:05.633Z,12.53
2018-04-06T03:04:09.563Z,12.07
2018-04-06T03:07:13.454Z,7.03
2018-04-06T03:10:16.548Z,15.83
2018-04-06T03:13:19.681Z,9.63
2018-04-06T03:16:22.787Z,14.53
2018-04-06T03:19:25.935Z,10.60
2018-04-06T03:22:29.231Z,5.63
2018-04-06T03:25:33.089Z,12.43
2018-04-06T03:28:36.211Z,7.53
2018-04-06T03:31:39.479Z,9.83
2018-04-06T03:34:42.602Z,9.30
2018-04-06T03:37:45.721Z,11.00
2018-04-06T03:40:48.882Z,10.47
2018-04-06T03:43:52.830Z,7.83
2018-04-06T03:46:55.943Z,9.77
2018-04-06T03:49:59.821Z,8.27
2018-04-06T03:53:02.942Z,10.20
2018-04-06T03:56:06.026Z,9.87
2018-04-06T03:59:09.141Z,7.53
2018-04-06T04:02:12.232Z,13.30
2018-04-06T04:05:15.736Z,13.70
2018-04-06T04:08:18.862Z,10.97
2018-04-06T04:11:22.797Z,15.33
2018-04-06T04:14:25.929Z,10.60
2018-04-06T04:17:29.147Z,10.07
2018-04-06T04:20:32.408Z,7.97
2018-04-06T04:23:36.344Z,6.40
2018-04-06T04:26:40.207Z,13.37
2018-04-06T04:29:43.329Z,9.97
2018-04-06T04:32:46.516Z,9.20
2018-04-06T04:35:49.697Z,10.60
2018-04-06T04:38:53.624Z,9.83
2018-04-06T04:41:57.526Z,11.63
2018-04-06T04:45:00.732Z,7.47
2018-04-06T04:48:03.846Z,9.00
2018-04-06T04:51:06.980Z,8.63
2018-04-06T04:54:10.858Z,7.70
2018-04-06T04:57:13.957Z,10.47
2018-04-06T05:00:17.070Z,6.80
2018-04-06T05:03:20.306Z,7.13
2018-04-06T05:06:23.396Z,6.47
2018-04-06T05:09:26.549Z,5.13
2018-04-06T05:12:29.783Z,8.67
2018-04-06T05:15:32.987Z,8.37
2018-04-06T05:18:36.115Z,7.07
2018-04-06T05:21:39.226Z,11.53
2018-04-06T05:24:42.389Z,10.13
2018-04-06T05:27:46.249Z,9.37
2018-04-06T05:30:49.421Z,10.50
2018-04-06T05:33:53.302Z,8.00
2018-04-06T05:36:56.455Z,10.57
2018-04-06T05:40:00.512Z,12.00
2018-04-06T05:43:03.622Z,8.13
2018-04-06T05:46:06.754Z,9.33
2018-04-06T05:49:09.918Z,8.43
2018-04-06T05:52:13.029Z,7.33
2018-04-06T05:55:16.252Z,7.63
2018-04-06T05:58:19.470Z,6.23
2018-04-06T06:01:22.602Z,16.23
2018-04-06T06:04:25.956Z,17.77
2018-04-06T06:07:29.912Z,13.53
2018-04-06T06:10:33.107Z,11.50
2018-04-06T06:13:36.293Z,13.73
2018-04-06T06:16:40.187Z,11.17
2018-04-06T06:19:43.314Z,11.70
2018-04-06T06:22:46.413Z,13.93
2018-04-06T06:25:49.542Z,11.63
2018-04-06T06:28:53.434Z,12.87
2018-04-06T06:31:56.573Z,11.50
2018-04-06T06:35:00.526Z,12.80
2018-04-06T06:38:03.741Z,11.53
2018-04-06T06:41:06.855Z,10.00
2018-04-06T06:44:09.974Z,12.10
2018-04-06T06:47:13.058Z,9.97
2018-04-06T06:50:16.266Z,10.43
2018-04-06T06:53:19.357Z,8.07
2018-04-06T06:56:23.247Z,9.47
2018-04-06T06:59:26.429Z,12.37
2018-04-06T07:02:30.621Z,12.23
2018-04-06T07:05:34.531Z,9.23
2018-04-06T07:08:37.682Z,14.37
2018-04-06T07:11:40.852Z,13.90
2018-04-06T07:14:44.010Z,15.23
2018-04-06T07:17:47.123Z,18.83
2018-04-06T07:20:50.306Z,21.27
2018-04-06T07:23:54.169Z,17.57
2018-04-06T07:26:57.482Z,24.50
2018-04-06T07:30:00.651Z,20.30
2018-04-06T07:33:04.636Z,16.33
2018-04-06T07:36:07.776Z,18.53
2018-04-06T07:39:11.715Z,18.93
2018-04-06T07:42:15.605Z,13.23
2018-04-06T07:45:18.728Z,7.97
2018-04-06T07:48:21.828Z,9.80
2018-04-06T07:51:24.958Z,11.97
2018-04-06T07:54:28.818Z,7.73
2018-04-06T07:57:31.979Z,8.80
2018-04-06T08:00:35.878Z,8.93
2018-04-06T08:03:38.974Z,9.03
2018-04-06T08:06:42.104Z,10.80
2018-04-06T08:09:45.257Z,8.07
2018-04-06T08:12:48.361Z,6.37
2018-04-06T08:15:51.486Z,7.63
2018-04-06T08:18:54.578Z,7.73
2018-04-06T08:21:57.729Z,8.80
2018-04-06T08:25:00.895Z,6.83
2018-04-06T08:28:04.020Z,6.33
2018-04-06T08:31:07.146Z,6.70
2018-04-06T08:34:10.245Z,6.83
2018-04-06T08:37:13.370Z,7.73
2018-04-06T08:40:16.543Z,9.87
2018-04-06T08:43:19.650Z,11.83
2018-04-06T08:46:22.768Z,13.63
2018-04-06T08:49:25.905Z,12.00
2018-04-06T08:52:29.060Z,18.77
2018-04-06T08:55:33.003Z,37.30
2018-04-06T08:58:36.164Z,57.07
2018-04-06T09:01:39.297Z,67.13
2018-04-06T09:04:43.240Z,67.17
2018-04-06T09:07:46.344Z,63.63
2018-04-06T09:10:50.284Z,68.20
2018-04-06T09:13:53.396Z,66.93
2018-04-06T09:16:56.578Z,59.40
2018-04-06T09:20:00.468Z,57.30
2018-04-06T09:23:03.626Z,64.07
2018-04-06T09:26:06.772Z,53.43
2018-04-06T09:29:09.948Z,46.83
2018-04-06T09:32:13.078Z,37.53
2018-04-06T09:35:16.258Z,33.03
2018-04-06T09:38:19.458Z,37.93
2018-04-06T09:41:23.398Z,31.40
2018-04-06T09:44:26.706Z,27.67
2018-04-06T09:47:30.609Z,30.20
2018-04-06T09:50:33.786Z,25.47
2018-04-06T09:53:36.890Z,22.80
2018-04-06T09:56:40.124Z,23.43
2018-04-06T09:59:43.269Z,20.07
2018-04-06T10:02:46.406Z,21.77
2018-04-06T10:05:49.554Z,14.93
2018-04-06T10:08:53.436Z,11.23
2018-04-06T10:11:56.579Z,16.20
2018-04-06T10:14:59.765Z,15.03
2018-04-06T10:18:02.886Z,12.43
2018-04-06T10:21:06.003Z,10.43
2018-04-06T10:24:09.135Z,7.10
2018-04-06T10:27:13.013Z,7.20
2018-04-06T10:30:16.105Z,7.20
2018-04-06T10:33:19.260Z,5.80
2018-04-06T10:36:22.353Z,4.07
2018-04-06T10:39:25.534Z,5.67
2018-04-06T10:42:28.653Z,5.03
2018-04-06T10:45:31.772Z,7.07
2018-04-06T10:48:34.914Z,6.27
2018-04-06T10:51:38.038Z,4.90
2018-04-06T10:54:41.134Z,4.67
2018-04-06T10:57:45.024Z,4.13
2018-04-06T11:00:49.629Z,3.80
2018-04-06T11:03:52.817Z,4.63
2018-04-06T11:06:55.942Z,3.20
2018-04-06T11:09:59.028Z,3.70
2018-04-06T11:13:02.911Z,3.20
2018-04-06T11:16:06.016Z,4.00
2018-04-06T11:19:09.137Z,4.13
2018-04-06T11:22:12.242Z,6.43
2018-04-06T11:25:15.696Z,4.93
2018-04-06T11:28:18.814Z,4.37
2018-04-06T11:31:21.902Z,3.70
2018-04-06T11:34:25.798Z,3.00
2018-04-06T11:37:28.954Z,6.17
2018-04-06T11:40:32.052Z,9.17
2018-04-06T11:43:35.937Z,11.40
2018-04-06T11:46:39.059Z,14.80
2018-04-06T11:49:42.157Z,17.17
2018-04-06T11:52:45.272Z,15.63
2018-04-06T11:55:48.364Z,14.90
2018-04-06T11:58:51.488Z,13.23
2018-04-06T12:01:54.600Z,13.80
2018-04-06T12:04:57.890Z,9.93
2018-04-06T12:08:01.037Z,8.60
2018-04-06T12:11:04.899Z,6.37
2018-04-06T12:14:08.022Z,10.83
2018-04-06T12:17:11.143Z,11.10
2018-04-06T12:20:14.246Z,18.87
2018-04-06T12:23:17.369Z,13.47
2018-04-06T12:26:20.461Z,8.47
2018-04-06T12:29:23.579Z,8.67
2018-04-06T12:32:26.701Z,8.27
2018-04-06T12:35:29.796Z,12.73
2018-04-06T12:38:32.912Z,12.70
2018-04-06T12:41:36.000Z,10.83
2018-04-06T12:44:39.117Z,11.27
2018-04-06T12:47:42.243Z,11.90
2018-04-06T12:50:46.103Z,11.97
2018-04-06T12:53:49.238Z,10.23
2018-04-06T12:56:52.346Z,12.13
2018-04-06T12:59:55.467Z,9.97
2018-04-06T13:02:59.620Z,10.83
2018-04-06T13:06:03.489Z,9.97
2018-04-06T13:09:06.614Z,8.40
2018-04-06T13:12:09.885Z,9.13
2018-04-06T13:15:13.775Z,11.67
2018-04-06T13:18:16.900Z,29.83
2018-04-06T13:21:20.845Z,39.63
2018-04-06T13:24:24.730Z,52.47
2018-04-06T13:27:27.828Z,65.03
2018-04-06T13:30:31.024Z,62.40
2018-04-06T13:33:34.163Z,64.63
2018-04-06T13:36:37.268Z,61.53
2018-04-06T13:39:40.387Z,64.23
2018-04-06T13:42:43.520Z,62.53
2018-04-06T13:45:47.382Z,61.43
2018-04-06T13:48:50.544Z,55.63
2018-04-06T13:51:54.407Z,57.13
2018-04-06T13:54:57.569Z,53.03
2018-04-06T13:58:00.681Z,53.83
2018-04-06T14:01:04.637Z,51.03
2018-04-06T14:04:07.702Z,50.57
2018-04-06T14:07:10.822Z,46.80
2018-04-06T14:10:14.724Z,42.73
2018-04-06T14:13:17.848Z,43.20
2018-04-06T14:16:21.722Z,43.50
2018-04-06T14:19:24.880Z,41.07
2018-04-06T14:22:28.013Z,36.93
2018-04-06T14:25:32.917Z,36.10
2018-04-06T14:28:36.157Z,33.97
2018-04-06T14:31:39.255Z,33.77
2018-04-06T14:34:42.380Z,31.40
2018-04-06T14:37:46.247Z,30.50
2018-04-06T14:40:49.374Z,36.30
2018-04-06T14:43:52.492Z,59.50
2018-04-06T14:46:55.640Z,73.47
2018-04-06T14:49:58.786Z,78.77
2018-04-06T14:53:01.887Z,71.60
2018-04-06T14:56:05.010Z,66.03
2018-04-06T14:59:08.177Z,63.43
2018-04-06T15:02:11.256Z,75.00
2018-04-06T15:05:15.884Z,80.27
2018-04-06T15:08:18.986Z,61.50
2018-04-06T15:11:22.117Z,65.43
2018-04-06T15:14:26.029Z,55.73
2018-04-06T15:17:29.181Z,67.63
2018-04-06T15:20:32.339Z,139.20
2018-04-06T15:23:35.578Z,140.37
2018-04-06T15:26:39.516Z,131.50
2018-04-06T15:29:43.406Z,104.80
2018-04-06T15:32:46.521Z,89.10
2018-04-06T15:35:51.349Z,79.23
2018-04-06T15:38:54.477Z,73.33
2018-04-06T15:41:57.585Z,63.80
2018-04-06T15:45:00.710Z,58.23
2018-04-06T15:48:04.570Z,58.73
2018-04-06T15:51:07.691Z,54.80
2018-04-06T15:54:10.814Z,52.80
2018-04-06T15:57:13.914Z,48.83
2018-04-06T16:00:17.033Z,48.67
2018-04-06T16:03:20.136Z,44.20
2018-04-06T16:06:23.259Z,39.67
2018-04-06T16:09:26.391Z,36.93
2018-04-06T16:12:30.288Z,36.40
2018-04-06T16:15:33.422Z,34.53
2018-04-06T16:18:37.293Z,33.57
2018-04-06T16:21:40.415Z,31.53
2018-04-06T16:24:43.542Z,29.73
2018-04-06T16:27:46.633Z,31.47
2018-04-06T16:30:49.759Z,30.47
2018-04-06T16:33:52.898Z,30.17
2018-04-06T16:36:56.265Z,30.20
2018-04-06T16:39:59.503Z,28.87
2018-04-06T16:43:02.614Z,27.53
2018-04-06T16:46:05.736Z,22.53
2018-04-06T16:49:09.596Z,22.00
2018-04-06T16:52:12.720Z,24.10
2018-04-06T16:55:16.216Z,22.63
2018-04-06T16:58:19.322Z,22.90
2018-04-06T17:01:22.445Z,22.37
2018-04-06T17:04:25.597Z,21.83
2018-04-06T17:07:28.719Z,21.00
2018-04-06T17:10:32.615Z,22.07
2018-04-06T17:13:35.705Z,20.80
2018-04-06T17:16:38.830Z,20.03
2018-04-06T17:19:41.990Z,18.50
2018-04-06T17:22:45.089Z,18.50
2018-04-06T17:25:48.230Z,18.30
2018-04-06T17:28:51.342Z,17.30
2018-04-06T17:31:54.470Z,15.73
2018-04-06T17:34:59.813Z,14.67
2018-04-06T17:38:02.915Z,12.80
2018-04-06T17:41:06.042Z,12.07
2018-04-06T17:44:09.137Z,11.70
2018-04-06T17:47:12.263Z,10.90
2018-04-06T17:50:15.387Z,12.40
2018-04-06T17:53:18.481Z,11.67
2018-04-06T17:56:21.606Z,12.40
2018-04-06T17:59:25.489Z,12.23
2018-04-06T18:02:28.638Z,12.67
2018-04-06T18:05:32.540Z,12.83
2018-04-06T18:08:35.632Z,10.87
2018-04-06T18:11:38.801Z,10.10
2018-04-06T18:14:41.902Z,8.80
2018-04-06T18:17:45.780Z,8.57
2018-04-06T18:20:48.906Z,7.00
2018-04-06T18:23:52.003Z,7.53
2018-04-06T18:26:55.130Z,6.23
2018-04-06T18:29:58.253Z,8.53
2018-04-06T18:33:02.144Z,5.90
2018-04-06T18:36:05.259Z,7.60
2018-04-06T18:39:08.364Z,7.70
2018-04-06T18:42:11.506Z,6.83
2018-04-06T18:45:15.371Z,7.77
2018-04-06T18:48:18.508Z,7.43
2018-04-06T18:51:21.629Z,5.73
2018-04-06T18:54:25.503Z,6.23
2018-04-06T18:57:28.688Z,6.87
2018-04-06T19:00:31.833Z,6.17
2018-04-06T19:03:34.951Z,6.30
2018-04-06T19:06:38.075Z,6.50
2018-04-06T19:09:41.929Z,8.17
2018-04-06T19:12:45.818Z,8.50
2018-04-06T19:15:48.955Z,6.53
2018-04-06T19:18:52.818Z,6.90
2018-04-06T19:21:55.939Z,5.77
2018-04-06T19:24:59.041Z,6.00
2018-04-06T19:28:02.320Z,5.83
2018-04-06T19:31:06.210Z,6.83
2018-04-06T19:34:09.303Z,6.23
2018-04-06T19:37:12.421Z,5.43
2018-04-06T19:40:15.521Z,7.27
2018-04-06T19:43:18.642Z,6.10
2018-04-06T19:46:21.748Z,6.83
2018-04-06T19:49:24.904Z,5.80
2018-04-06T19:52:28.013Z,5.77
2018-04-06T19:55:31.120Z,5.73
2018-04-06T19:58:34.305Z,5.63
2018-04-06T20:01:38.198Z,5.30
2018-04-06T20:04:41.369Z,5.47
2018-04-06T20:07:44.499Z,5.10
2018-04-06T20:10:47.589Z,5.10
2018-04-06T20:13:50.700Z,4.90
2018-04-06T20:16:53.818Z,5.43
2018-04-06T20:19:56.927Z,4.80
2018-04-06T20:23:00.047Z,4.60
2018-04-06T20:26:03.148Z,4.00
2018-04-06T20:29:06.264Z,4.30
2018-04-06T20:32:09.385Z,4.23
2018-04-06T20:35:12.512Z,3.70
2018-04-06T20:38:15.628Z,3.73
2018-04-06T20:41:19.487Z,3.67
2018-04-06T20:44:22.621Z,3.83
2018-04-06T20:47:25.730Z,3.50
2018-04-06T20:50:28.844Z,3.50
2018-04-06T20:53:31.995Z,3.80
2018-04-06T20:56:35.130Z,2.87
2018-04-06T20:59:38.288Z,3.00
2018-04-06T21:02:41.428Z,3.30
2018-04-06T21:05:44.541Z,4.10
2018-04-06T21:08:47.653Z,3.43
2018-04-06T21:11:50.772Z,4.43
2018-04-06T21:14:53.866Z,4.33
2018-04-06T21:17:56.995Z,3.00
2018-04-06T21:21:00.103Z,2.83
2018-04-06T21:24:03.227Z,3.10
2018-04-06T21:27:06.349Z,3.00
2018-04-06T21:30:09.442Z,2.83
2018-04-06T21:33:12.555Z,3.23
2018-04-06T21:36:15.641Z,3.57
2018-04-06T21:39:18.764Z,3.17
2018-04-06T21:42:21.877Z,3.03
2018-04-06T21:45:24.987Z,3.93
2018-04-06T21:48:28.138Z,2.20
2018-04-06T21:51:32.000Z,3.50
2018-04-06T21:54:35.170Z,2.30
2018-04-06T21:57:39.041Z,2.70
2018-04-06T22:00:42.130Z,4.07
2018-04-06T22:03:45.253Z,2.83
2018-04-06T22:06:48.346Z,2.93
2018-04-06T22:09:51.454Z,2.70
2018-04-06T22:12:54.573Z,2.20
2018-04-06T22:15:57.674Z,3.47
2018-04-06T22:19:00.825Z,2.43
2018-04-06T22:22:03.911Z,2.77
2018-04-06T22:25:07.027Z,5.00
2018-04-06T22:28:10.153Z,12.53
2018-04-06T22:31:13.255Z,22.87
2018-04-06T22:34:16.381Z,34.20
2018-04-06T22:37:20.283Z,33.03
2018-04-06T22:40:23.387Z,49.87
2018-04-06T22:43:26.534Z,38.20
2018-04-06T22:46:30.423Z,30.43
2018-04-06T22:49:35.057Z,24.03
2018-04-06T22:52:38.178Z,20.70
2018-04-06T22:55:41.274Z,26.07
2018-04-06T22:58:44.395Z,19.03
2018-04-06T23:01:47.503Z,17.23
2018-04-06T23:04:50.630Z,12.43
2018-04-06T23:07:54.509Z,9.53
2018-04-06T23:10:57.651Z,12.03
2018-04-06T23:14:00.772Z,10.37
2018-04-06T23:17:04.628Z,7.20
2018-04-06T23:20:07.745Z,8.80
2018-04-06T23:23:10.860Z,5.23
2018-04-06T23:26:13.949Z,5.87
2018-04-06T23:29:17.069Z,6.93
2018-04-06T23:32:20.161Z,4.30
2018-04-06T23:35:23.290Z,3.67
2018-04-06T23:38:26.461Z,4.40
2018-04-06T23:41:29.640Z,5.13
2018-04-06T23:44:32.766Z,7.73
2018-04-06T23:47:36.626Z,6.57
2018-04-06T23:50:39.751Z,8.17
2018-04-06T23:53:42.879Z,7.40
2018-04-06T23:56:46.034Z,4.70
2018-04-06T23:59:49.153Z,3.93
